sensor_id;sensor_type;location;lat;lon;timestamp;temperature;humidity
50690;DHT22;71367;48.298;11.238;2023-12-22T00:02:43;5.10;99.90
50690;DHT22;71367;48.298;11.238;2023-12-22T00:17:47;2.60;99.90
50690;DHT22;71367;48.298;11.238;2023-12-22T00:32:52;1.60;99.90
50690;DHT22;71367;48.298;11.238;2023-12-22T00:47:56;1.90;99.90
50690;DHT22;71367;48.298;11.238;2023-12-22T01:03:00;2.00;99.90
50690;DHT22;71367;48.298;11.238;2023-12-22T01:18:04;2.10;99.90
50690;DHT22;71367;48.298;11.238;2023-12-22T01:33:08;1.90;99.90
50690;DHT22;71367;48.298;11.238;2023-12-22T01:48:17;1.80;99.90
50690;DHT22;71367;48.298;11.238;2023-12-22T02:03:21;1.50;99.90
50690;DHT22;71367;48.298;11.238;2023-12-22T02:18:33;1.40;99.90
50690;DHT22;71367;48.298;11.238;2023-12-22T02:33:40;1.00;99.90
50690;DHT22;71367;48.298;11.238;2023-12-22T02:48:44;1.10;99.90
50690;DHT22;71367;48.298;11.238;2023-12-22T03:03:48;1.10;99.90
50690;DHT22;71367;48.298;11.238;2023-12-22T03:18:51;1.30;99.90
50690;DHT22;71367;48.298;11.238;2023-12-22T03:33:55;1.60;99.90
50690;DHT22;71367;48.298;11.238;2023-12-22T03:48:58;1.60;99.90
50690;DHT22;71367;48.298;11.238;2023-12-22T04:04:02;1.80;99.90
50690;DHT22;71367;48.298;11.238;2023-12-22T04:19:05;3.00;99.90
50690;DHT22;71367;48.298;11.238;2023-12-22T04:34:14;3.60;99.90
50690;DHT22;71367;48.298;11.238;2023-12-22T04:49:23;4.10;99.90
50690;DHT22;71367;48.298;11.238;2023-12-22T05:04:28;4.40;99.90
50690;DHT22;71367;48.298;11.238;2023-12-22T05:19:33;4.60;99.90
50690;DHT22;71367;48.298;11.238;2023-12-22T05:34:37;4.80;99.90
50690;DHT22;71367;48.298;11.238;2023-12-22T05:49:41;5.00;99.90
50690;DHT22;71367;48.298;11.238;2023-12-22T06:04:45;4.30;99.90
50690;DHT22;71367;48.298;11.238;2023-12-22T06:19:48;3.90;99.90
50690;DHT22;71367;48.298;11.238;2023-12-22T06:34:52;3.70;99.90
50690;DHT22;71367;48.298;11.238;2023-12-22T06:49:56;3.80;99.90
50690;DHT22;71367;48.298;11.238;2023-12-22T07:05:01;4.20;99.90
50690;DHT22;71367;48.298;11.238;2023-12-22T07:20:11;4.50;99.90
50690;DHT22;71367;48.298;11.238;2023-12-22T07:35:16;4.20;99.90
50690;DHT22;71367;48.298;11.238;2023-12-22T07:50:19;4.10;99.90
50690;DHT22;71367;48.298;11.238;2023-12-22T08:05:23;4.20;99.90
50690;DHT22;71367;48.298;11.238;2023-12-22T08:20:27;3.80;99.90
50690;DHT22;71367;48.298;11.238;2023-12-22T08:35:31;4.40;99.90
50690;DHT22;71367;48.298;11.238;2023-12-22T08:50:34;4.30;99.90
50690;DHT22;71367;48.298;11.238;2023-12-22T09:05:38;4.70;99.90
50690;DHT22;71367;48.298;11.238;2023-12-22T09:20:41;5.10;99.90
50690;DHT22;71367;48.298;11.238;2023-12-22T09:35:45;5.00;99.90
50690;DHT22;71367;48.298;11.238;2023-12-22T09:50:49;5.20;99.90
50690;DHT22;71367;48.298;11.238;2023-12-22T10:05:53;5.00;99.90
50690;DHT22;71367;48.298;11.238;2023-12-22T10:20:56;4.50;99.90
50690;DHT22;71367;48.298;11.238;2023-12-22T10:36:00;4.00;99.90
50690;DHT22;71367;48.298;11.238;2023-12-22T10:51:09;3.80;99.90
50690;DHT22;71367;48.298;11.238;2023-12-22T11:06:15;3.70;99.90
50690;DHT22;71367;48.298;11.238;2023-12-22T11:21:20;4.20;99.90
50690;DHT22;71367;48.298;11.238;2023-12-22T11:36:25;4.90;99.90
50690;DHT22;71367;48.298;11.238;2023-12-22T11:51:33;5.00;99.90
50690;DHT22;71367;48.298;11.238;2023-12-22T12:06:37;5.00;99.90
50690;DHT22;71367;48.298;11.238;2023-12-22T12:21:41;5.00;99.90
50690;DHT22;71367;48.298;11.238;2023-12-22T12:36:46;5.10;99.90
50690;DHT22;71367;48.298;11.238;2023-12-22T12:51:49;5.10;99.90
50690;DHT22;71367;48.298;11.238;2023-12-22T13:06:53;5.20;99.90
50690;DHT22;71367;48.298;11.238;2023-12-22T13:21:59;5.20;99.90
50690;DHT22;71367;48.298;11.238;2023-12-22T13:37:04;5.00;99.90
50690;DHT22;71367;48.298;11.238;2023-12-22T13:52:08;5.00;99.90
50690;DHT22;71367;48.298;11.238;2023-12-22T14:07:27;5.10;99.90
50690;DHT22;71367;48.298;11.238;2023-12-22T14:22:31;5.30;99.90
50690;DHT22;71367;48.298;11.238;2023-12-22T14:37:34;5.60;99.90
50690;DHT22;71367;48.298;11.238;2023-12-22T14:52:39;5.70;99.90
50690;DHT22;71367;48.298;11.238;2023-12-22T15:07:42;5.80;99.90
50690;DHT22;71367;48.298;11.238;2023-12-22T15:22:46;6.00;99.90
50690;DHT22;71367;48.298;11.238;2023-12-22T15:37:50;6.10;99.90
50690;DHT22;71367;48.298;11.238;2023-12-22T15:52:53;6.20;99.90
50690;DHT22;71367;48.298;11.238;2023-12-22T16:07:58;6.20;99.90
50690;DHT22;71367;48.298;11.238;2023-12-22T16:23:04;6.30;99.90
50690;DHT22;71367;48.298;11.238;2023-12-22T16:38:07;6.40;99.90
50690;DHT22;71367;48.298;11.238;2023-12-22T16:53:13;6.50;99.90
50690;DHT22;71367;48.298;11.238;2023-12-22T17:08:17;6.60;99.90
50690;DHT22;71367;48.298;11.238;2023-12-22T17:23:21;6.60;99.90
50690;DHT22;71367;48.298;11.238;2023-12-22T17:38:24;6.50;99.90
50690;DHT22;71367;48.298;11.238;2023-12-22T17:53:27;6.50;99.90
50690;DHT22;71367;48.298;11.238;2023-12-22T18:08:31;6.70;99.90
50690;DHT22;71367;48.298;11.238;2023-12-22T18:23:34;6.70;99.90
50690;DHT22;71367;48.298;11.238;2023-12-22T18:38:38;6.70;99.90
50690;DHT22;71367;48.298;11.238;2023-12-22T18:53:43;6.60;99.90
50690;DHT22;71367;48.298;11.238;2023-12-22T19:08:47;6.80;99.90
50690;DHT22;71367;48.298;11.238;2023-12-22T19:23:51;6.80;99.90
50690;DHT22;71367;48.298;11.238;2023-12-22T19:38:55;6.70;99.90
50690;DHT22;71367;48.298;11.238;2023-12-22T19:54:01;6.80;99.90
50690;DHT22;71367;48.298;11.238;2023-12-22T20:09:05;6.80;99.90
50690;DHT22;71367;48.298;11.238;2023-12-22T20:24:12;6.90;99.90
50690;DHT22;71367;48.298;11.238;2023-12-22T20:39:16;6.90;99.90
50690;DHT22;71367;48.298;11.238;2023-12-22T20:54:20;6.80;99.90
50690;DHT22;71367;48.298;11.238;2023-12-22T21:09:24;6.70;99.90
50690;DHT22;71367;48.298;11.238;2023-12-22T21:24:27;6.60;99.90
50690;DHT22;71367;48.298;11.238;2023-12-22T21:39:31;6.60;99.90
50690;DHT22;71367;48.298;11.238;2023-12-22T21:54:35;6.50;99.90
50690;DHT22;71367;48.298;11.238;2023-12-22T22:09:39;6.50;99.90
50690;DHT22;71367;48.298;11.238;2023-12-22T22:24:43;6.50;99.90
50690;DHT22;71367;48.298;11.238;2023-12-22T22:39:47;6.50;99.90
50690;DHT22;71367;48.298;11.238;2023-12-22T22:54:51;6.40;99.90
50690;DHT22;71367;48.298;11.238;2023-12-22T23:09:56;6.50;99.90
50690;DHT22;71367;48.298;11.238;2023-12-22T23:25:00;6.40;99.90
50690;DHT22;71367;48.298;11.238;2023-12-22T23:40:08;6.30;99.90
50690;DHT22;71367;48.298;11.238;2023-12-22T23:55:11;6.20;99.90
